Time;durP1;ratioP1;P1;durP2;ratioP2;P2;SDS_P1;SDS_P2;PMS_P1;PMS_P2;Temp;Humidity;BMP_temperature;BMP_pressure;BME280_temperature;BME280_humidity;BME280_pressure;Samples;Min_cycle;Max_cycle;Signal;HPM_P1;HPM_P2
2022/07/13 00:01:20;;;;;;;17.33;12.60;;;;;;;21.54;69.33;102016.03;5056199;28;20108;-77
2022/07/13 00:03:45;;;;;;;18.67;12.93;;;;;;;21.56;69.33;102008.31;5075287;28;20427;-78
2022/07/13 00:06:10;;;;;;;16.92;12.82;;;;;;;21.57;68.94;102004.47;5073526;28;20047;-78
2022/07/13 00:08:36;;;;;;;16.40;12.75;;;;;;;21.52;68.98;102004.38;5073411;28;20025;-77
2022/07/13 00:11:01;;;;;;;17.13;12.68;;;;;;;21.56;69.84;102004.75;5074924;28;20450;-78
2022/07/13 00:13:26;;;;;;;15.65;12.95;;;;;;;21.52;70.28;101995.28;5074087;28;20036;-77
2022/07/13 00:15:52;;;;;;;19.48;12.70;;;;;;;21.51;69.64;101985.34;5072764;28;20032;-78
2022/07/13 00:18:17;;;;;;;17.40;13.43;;;;;;;21.50;69.96;101978.16;5074880;28;20063;-77
2022/07/13 00:20:44;;;;;;;18.42;13.43;;;;;;;21.46;70.53;101974.25;5074907;28;20025;-77
2022/07/13 00:23:10;;;;;;;16.60;12.95;;;;;;;21.47;69.66;101973.16;5055690;28;20025;-78
2022/07/13 00:25:35;;;;;;;18.33;12.93;;;;;;;21.49;68.84;101965.47;5072468;28;20368;-77
2022/07/13 00:28:00;;;;;;;17.83;13.15;;;;;;;21.46;68.78;101964.06;5055961;28;20081;-77
2022/07/13 00:30:26;;;;;;;17.98;12.95;;;;;;;21.37;68.07;101946.31;5071548;28;20074;-77
2022/07/13 00:32:51;;;;;;;18.42;12.68;;;;;;;21.48;68.05;101966.56;5071006;28;20491;-78
2022/07/13 00:35:16;;;;;;;17.20;12.88;;;;;;;21.49;66.99;101962.72;5073009;28;20063;-76
2022/07/13 00:37:43;;;;;;;18.08;13.25;;;;;;;21.50;66.86;101951.44;5055716;28;20032;-78
2022/07/13 00:40:09;;;;;;;17.60;13.00;;;;;;;21.49;66.67;101935.16;5074417;28;20037;-77
2022/07/13 00:42:35;;;;;;;18.20;12.95;;;;;;;21.45;66.40;101931.25;5074099;28;20036;-77
2022/07/13 00:45:00;;;;;;;15.40;12.10;;;;;;;21.46;66.58;101930.13;5055721;28;20037;-77
2022/07/13 00:47:34;;;;;;;17.10;12.20;;;;;;;21.48;66.83;101939.00;5074237;28;20039;-77
2022/07/13 00:50:01;;;;;;;18.38;13.02;;;;;;;21.49;66.99;101937.91;5056073;28;20025;-78
2022/07/13 00:52:27;;;;;;;16.83;12.40;;;;;;;21.44;66.30;101935.91;5072394;28;20032;-77
2022/07/13 00:54:52;;;;;;;19.80;12.77;;;;;;;21.42;67.02;101930.66;5072698;28;20059;-78
2022/07/13 00:57:18;;;;;;;19.52;13.38;;;;;;;21.36;67.14;101923.41;5073437;28;20055;-77
2022/07/13 00:59:44;;;;;;;17.45;12.68;;;;;;;21.39;66.52;101922.91;5072954;28;20025;-79
2022/07/13 01:02:09;;;;;;;17.88;12.73;;;;;;;21.37;67.01;101916.81;5073866;28;20028;-78
2022/07/13 01:04:35;;;;;;;17.08;12.63;;;;;;;21.35;67.41;101910.75;5073612;28;20065;-78
2022/07/13 01:07:00;;;;;;;17.98;12.88;;;;;;;21.35;66.98;101899.72;5070711;28;20051;-77
2022/07/13 01:09:26;;;;;;;17.48;13.15;;;;;;;21.34;66.74;101900.81;5093505;28;20038;-77
2022/07/13 01:11:52;;;;;;;16.75;12.80;;;;;;;21.29;67.78;101903.50;5093057;28;20066;-77
2022/07/13 01:14:18;;;;;;;15.73;12.50;;;;;;;21.28;67.89;101915.59;5094630;28;20116;-77
2022/07/13 01:16:44;;;;;;;16.35;13.10;;;;;;;21.21;66.29;101891.00;5091635;28;20032;-77
2022/07/13 01:19:12;;;;;;;18.40;13.13;;;;;;;21.28;66.80;101898.25;5092801;28;20464;-76
2022/07/13 01:21:41;;;;;;;18.20;13.50;;;;;;;21.29;66.45;101902.69;5093406;28;20081;-77
2022/07/13 01:24:06;;;;;;;19.08;13.00;;;;;;;21.17;66.35;101897.28;5093560;28;20052;-77
2022/07/13 01:26:33;;;;;;;18.55;13.30;;;;;;;21.27;66.69;101908.44;5093206;28;20116;-77
2022/07/13 01:28:58;;;;;;;18.48;12.75;;;;;;;21.21;66.26;101895.69;5090433;28;20056;-77
2022/07/13 01:31:35;;;;;;;17.55;12.80;;;;;;;21.29;66.24;101909.00;5091397;28;20028;-78
2022/07/13 01:34:00;;;;;;;18.02;13.60;;;;;;;21.27;66.42;101911.22;5093180;28;20024;-77
2022/07/13 01:36:26;;;;;;;18.10;13.60;;;;;;;21.24;66.57;101903.44;5093556;28;20101;-78
2022/07/13 01:38:52;;;;;;;16.38;12.82;;;;;;;21.14;66.58;101886.78;5092015;28;20081;-77
2022/07/13 01:41:18;;;;;;;18.02;13.27;;;;;;;21.08;69.54;101900.50;5093846;28;20032;-77
2022/07/13 01:43:45;;;;;;;19.67;13.10;;;;;;;21.15;68.33;101902.25;5091832;28;20035;-77
2022/07/13 01:46:10;;;;;;;16.75;12.50;;;;;;;21.17;66.97;101900.88;5091007;28;20047;-77
2022/07/13 01:48:36;;;;;;;18.45;13.15;;;;;;;21.11;67.51;101893.66;5092669;28;20071;-77
2022/07/13 01:51:01;;;;;;;16.55;12.88;;;;;;;21.10;67.66;101880.13;5091903;28;20109;-78
2022/07/13 01:53:26;;;;;;;18.20;13.15;;;;;;;21.15;67.17;101885.72;5093470;28;20028;-77
2022/07/13 01:55:52;;;;;;;18.67;12.93;;;;;;;21.15;66.92;101882.97;5091847;28;20028;-77
2022/07/13 01:58:18;;;;;;;17.88;12.95;;;;;;;21.18;66.13;101899.78;5092614;28;20070;-77
2022/07/13 02:00:43;;;;;;;17.70;12.52;;;;;;;21.28;64.35;101892.72;5091968;28;20032;-77
2022/07/13 02:03:09;;;;;;;15.95;12.48;;;;;;;21.23;65.49;101886.06;5093248;28;20420;-78
2022/07/13 02:05:35;;;;;;;17.10;12.73;;;;;;;21.20;66.33;101891.25;5092483;28;20039;-77
2022/07/13 02:08:00;;;;;;;17.80;12.75;;;;;;;21.25;65.68;101878.38;5075110;28;20480;-77
2022/07/13 02:10:34;;;;;;;16.75;12.45;;;;;;;21.25;65.87;101888.56;5073095;28;20036;-77
2022/07/13 02:13:00;;;;;;;;;;;;;;;21.33;65.81;101881.78;5072977;28;20482;-77
2022/07/13 02:15:25;;;;;;;18.33;12.05;;;;;;;21.24;65.62;101882.22;5054534;28;19917;-78
2022/07/13 02:17:51;;;;;;;16.92;11.40;;;;;;;21.28;65.06;101879.78;5072468;28;20060;-77
2022/07/13 02:20:16;;;;;;;17.33;11.23;;;;;;;21.27;64.84;101871.75;5071587;28;20066;-77
2022/07/13 02:22:43;;;;;;;17.45;11.27;;;;;;;21.29;64.86;101873.19;5071126;28;20040;-78
2022/07/13 02:25:09;;;;;;;15.15;11.45;;;;;;;21.29;64.74;101873.19;5054025;28;20036;-77
2022/07/13 02:27:35;;;;;;;17.33;11.13;;;;;;;21.28;65.31;101867.94;5071732;28;20127;-77
2022/07/13 02:30:00;;;;;;;15.20;10.98;;;;;;;21.27;64.69;101863.50;5054927;28;20108;-78
2022/07/13 02:32:26;;;;;;;14.75;11.02;;;;;;;21.26;65.90;101870.94;5055275;28;20033;-77
2022/07/13 02:34:51;;;;;;;17.30;11.90;;;;;;;21.28;67.07;101867.94;5073138;28;20435;-77
2022/07/13 02:37:16;;;;;;;15.52;10.95;;;;;;;21.21;69.06;101859.88;5072607;28;20433;-77
2022/07/13 02:39:41;;;;;;;15.63;10.95;;;;;;;21.25;65.08;101861.81;5069338;28;20411;-78
2022/07/13 02:42:07;;;;;;;15.98;10.32;;;;;;;21.24;64.64;101853.81;5073958;28;20472;-77
2022/07/13 02:44:32;;;;;;;15.55;10.48;;;;;;;21.21;64.97;101844.16;5077410;28;20349;-78
2022/07/13 02:46:58;;;;;;;14.18;9.98;;;;;;;21.25;63.75;101847.22;5056356;28;20020;-76
2022/07/13 02:49:23;;;;;;;14.40;9.55;;;;;;;21.20;64.16;101836.13;5076646;28;20103;-78
2022/07/13 02:51:48;;;;;;;13.05;8.63;;;;;;;21.22;63.96;101834.78;5076095;28;20024;-78
2022/07/13 02:54:14;;;;;;;12.57;9.00;;;;;;;21.22;63.69;101828.47;5041121;28;20034;-78
2022/07/13 02:56:39;;;;;;;14.18;9.27;;;;;;;21.22;63.68;101840.31;5074794;28;20372;-77
2022/07/13 02:59:04;;;;;;;14.75;9.50;;;;;;;21.23;63.05;101839.22;5054072;28;20101;-78
2022/07/13 03:01:30;;;;;;;12.20;9.00;;;;;;;21.18;63.93;101828.13;5074181;28;20033;-78
2022/07/13 03:03:56;;;;;;;13.88;9.77;;;;;;;21.22;63.62;101845.81;5076349;28;20033;-77
2022/07/13 03:06:22;;;;;;;13.60;9.68;;;;;;;21.25;63.44;101844.47;5078077;28;20082;-77
2022/07/13 03:08:47;;;;;;;13.68;8.93;;;;;;;21.25;63.33;101839.78;5075478;28;20063;-78
2022/07/13 03:11:13;;;;;;;16.67;9.40;;;;;;;21.30;62.69;101846.47;5074357;28;20044;-78
2022/07/13 03:13:38;;;;;;;13.80;8.52;;;;;;;21.27;62.53;101836.78;5075929;28;20115;-78
2022/07/13 03:16:04;;;;;;;13.68;8.52;;;;;;;21.35;62.86;101843.72;5075633;28;20037;-77
2022/07/13 03:18:29;;;;;;;13.00;8.43;;;;;;;21.29;62.71;101833.78;5073120;28;20013;-77
2022/07/13 03:20:55;;;;;;;12.35;8.13;;;;;;;21.32;62.79;101828.53;5075552;28;20437;-78
2022/07/13 03:23:20;;;;;;;12.68;8.20;;;;;;;21.33;62.91;101830.22;5057399;28;20025;-77
2022/07/13 03:25:46;;;;;;;13.80;8.25;;;;;;;21.29;64.50;101836.53;5073607;28;20055;-78
2022/07/13 03:28:11;;;;;;;14.35;8.50;;;;;;;21.32;62.32;101828.53;5075362;28;20028;-78
2022/07/13 03:30:37;;;;;;;10.15;6.90;;;;;;;21.39;61.68;101829.19;5073776;28;20134;-77
2022/07/13 03:33:02;;;;;;;8.95;6.80;;;;;;;21.40;61.78;101824.50;5074087;28;20457;-77
2022/07/13 03:35:28;;;;;;;9.05;6.13;;;;;;;21.45;60.68;101826.50;5056582;28;20044;-77
2022/07/13 03:37:53;;;;;;;10.02;6.20;;;;;;;21.49;61.14;101819.34;5072385;28;20025;-77
2022/07/13 03:40:19;;;;;;;9.15;6.10;;;;;;;21.52;60.30;101832.59;5076006;28;20111;-77
2022/07/13 03:42:50;;;;;;;8.80;6.50;;;;;;;21.56;59.87;101823.56;5074877;28;20453;-77
2022/07/13 03:45:16;;;;;;;8.30;6.07;;;;;;;21.58;59.56;101820.53;5075197;28;20032;-77
2022/07/13 03:47:41;;;;;;;9.02;5.93;;;;;;;21.61;59.48;101828.31;5074312;28;20392;-77
2022/07/13 03:50:07;;;;;;;9.48;6.30;;;;;;;21.63;59.71;101828.06;5053540;28;20025;-77
2022/07/13 03:52:32;;;;;;;7.63;5.80;;;;;;;21.62;59.57;101821.69;5071924;28;20046;-77
2022/07/13 03:54:58;;;;;;;9.48;6.40;;;;;;;21.63;59.53;101819.78;5075063;28;20039;-77
2022/07/13 03:57:23;;;;;;;14.45;8.25;;;;;;;21.61;59.68;101811.78;5073258;28;20056;-77
2022/07/13 03:59:48;;;;;;;19.05;9.90;;;;;;;21.57;59.58;101814.22;5074548;28;20062;-77
2022/07/13 04:02:14;;;;;;;19.92;10.20;;;;;;;21.62;60.96;101826.38;5074480;28;20035;-77
2022/07/13 04:04:39;;;;;;;15.10;8.65;;;;;;;21.63;59.90;101828.88;5057392;28;20028;-77
2022/07/13 04:07:04;;;;;;;7.38;5.38;;;;;;;21.65;59.23;101825.84;5082703;28;20127;-78
2022/07/13 04:09:30;;;;;;;7.32;5.40;;;;;;;21.61;59.43;101813.69;5082156;28;20349;-77
2022/07/13 04:11:55;;;;;;;7.43;5.07;;;;;;;21.65;59.59;101818.41;5095648;28;20039;-77
2022/07/13 04:14:20;;;;;;;8.93;4.97;;;;;;;21.61;59.09;101811.78;5094308;28;20020;-77
2022/07/13 04:16:46;;;;;;;9.23;5.03;;;;;;;21.62;60.38;101821.69;5094715;28;20042;-77
2022/07/13 04:19:11;;;;;;;7.50;4.80;;;;;;;21.61;58.92;101808.16;5095463;28;20024;-77
2022/07/13 04:21:36;;;;;;;7.65;4.50;;;;;;;21.63;58.30;101811.50;5093163;28;20032;-77
2022/07/13 04:24:02;;;;;;;6.65;4.68;;;;;;;21.65;58.85;101803.78;5095097;28;20032;-78
2022/07/13 04:26:27;;;;;;;11.95;5.80;;;;;;;21.64;58.16;101794.69;5094586;28;20541;-77
2022/07/13 04:28:53;;;;;;;9.65;4.28;;;;;;;21.66;58.55;101800.75;5092131;28;20482;-77
2022/07/13 04:31:18;;;;;;;7.82;4.65;;;;;;;21.69;58.17;101800.25;5092166;28;20368;-77
2022/07/13 04:33:43;;;;;;;7.40;4.05;;;;;;;21.66;59.60;101809.03;5094129;28;20023;-77
2022/07/13 04:36:09;;;;;;;9.82;4.20;;;;;;;21.68;58.22;101804.09;5093255;28;20043;-77
2022/07/13 04:38:35;;;;;;;8.05;3.97;;;;;;;21.69;58.32;101803.00;5093282;28;20038;-77
2022/07/13 04:41:00;;;;;;;6.47;3.88;;;;;;;21.70;58.38;101799.13;5093058;28;20058;-77
2022/07/13 04:43:26;;;;;;;8.27;4.20;;;;;;;21.71;58.00;101798.03;5092232;28;20048;-77
2022/07/13 04:45:51;;;;;;;7.78;3.90;;;;;;;21.71;58.15;101795.28;5093354;28;20115;-77
2022/07/13 04:48:17;;;;;;;4.75;3.88;;;;;;;21.73;58.49;101797.78;5092774;28;20020;-77
2022/07/13 04:50:43;;;;;;;8.20;3.95;;;;;;;21.69;58.85;101791.97;5094464;28;20032;-77
2022/07/13 04:53:08;;;;;;;6.95;3.70;;;;;;;21.72;58.96;101796.13;5091214;28;20036;-77
2022/07/13 04:55:37;;;;;;;4.35;3.83;;;;;;;21.74;58.35;101800.28;5094270;28;20035;-77
2022/07/13 04:58:02;;;;;;;9.60;3.85;;;;;;;21.75;58.87;101801.94;5093097;28;20051;-77
2022/07/13 05:00:27;;;;;;;6.32;3.72;;;;;;;21.77;58.52;101801.66;5090336;28;20036;-77
2022/07/13 05:02:53;;;;;;;6.55;4.00;;;;;;;21.77;58.87;101796.16;5093169;28;20062;-77
2022/07/13 05:05:19;;;;;;;7.15;3.70;;;;;;;21.77;58.13;101790.63;5092192;28;20473;-77
2022/07/13 05:07:44;;;;;;;5.60;3.42;;;;;;;21.80;58.06;101792.03;5080866;28;20044;-77
2022/07/13 05:10:09;;;;;;;7.95;3.75;;;;;;;21.82;58.14;101789.88;5073891;28;20070;-77
2022/07/13 05:12:42;;;;;;;7.78;3.92;;;;;;;21.83;58.41;101784.06;5073813;28;20024;-77
2022/07/13 05:15:11;;;;;;;7.25;4.20;;;;;;;21.85;57.99;101786.56;5073673;28;20024;-77
2022/07/13 05:17:36;;;;;;;6.13;3.92;;;;;;;21.87;58.28;101781.63;5072915;28;20063;-77
2022/07/13 05:20:03;;;;;;;6.10;3.97;;;;;;;21.89;58.19;101784.94;5073673;28;20028;-77
2022/07/13 05:22:30;;;;;;;5.65;3.65;;;;;;;21.91;57.67;101783.56;5074007;28;20174;-77
2022/07/13 05:24:56;;;;;;;7.28;4.05;;;;;;;21.94;58.34;101784.16;5074162;28;20103;-77
2022/07/13 05:30:52;;;;;;;8.48;3.92;;;;;;;21.96;58.04;101785.53;5070781;28;20038;-78
2022/07/13 05:33:19;;;;;;;5.10;3.58;;;;;;;21.99;58.17;101793.28;5072735;28;20039;-77
2022/07/13 05:35:45;;;;;;;7.03;3.83;;;;;;;21.97;59.10;101789.97;5072643;28;20020;-77
2022/07/13 05:38:10;;;;;;;7.60;3.72;;;;;;;21.98;59.11;101797.16;5073598;28;20456;-77
2022/07/13 05:40:36;;;;;;;4.68;3.90;;;;;;;22.01;57.66;101802.13;5072476;28;20021;-78
2022/07/13 05:43:01;;;;;;;7.35;3.70;;;;;;;21.97;58.46;101806.50;5073412;28;20028;-77
2022/07/13 05:45:26;;;;;;;6.38;3.58;;;;;;;21.99;58.45;101809.84;5055255;28;20033;-77
2022/07/13 05:47:52;;;;;;;4.78;3.75;;;;;;;21.98;59.33;101813.69;5074004;28;20032;-77
2022/07/13 05:50:17;;;;;;;8.15;3.90;;;;;;;21.97;58.91;101806.50;5073953;28;20465;-77
2022/07/13 05:52:43;;;;;;;8.27;4.13;;;;;;;21.99;57.57;101801.56;5055711;28;20346;-77
2022/07/13 05:55:10;;;;;;;5.93;3.78;;;;;;;21.96;58.77;101813.13;5054701;28;20036;-77
2022/07/13 05:57:36;;;;;;;6.85;4.03;;;;;;;21.95;58.59;101822.50;5073389;28;20123;-77
2022/07/13 06:00:02;;;;;;;7.97;4.10;;;;;;;21.98;59.06;101827.50;5071473;28;20107;-77
2022/07/13 06:02:28;;;;;;;9.20;4.10;;;;;;;22.00;58.75;101825.28;5071790;28;20460;-77
2022/07/13 06:04:53;;;;;;;7.75;4.13;;;;;;;22.02;58.79;101822.28;5072079;28;20115;-77
2022/07/13 06:07:18;;;;;;;9.30;4.15;;;;;;;22.06;59.38;101824.25;5079670;28;20105;-77
2022/07/13 06:09:44;;;;;;;6.25;3.97;;;;;;;22.09;59.38;101814.59;5088324;28;20099;-78
2022/07/13 06:12:09;;;;;;;9.23;4.07;;;;;;;22.18;59.21;101814.91;5090848;28;20034;-77
2022/07/13 06:14:34;;;;;;;9.18;4.63;;;;;;;22.19;59.24;101813.81;5087811;28;20081;-77
2022/07/13 06:17:00;;;;;;;10.27;4.05;;;;;;;22.24;60.24;101811.09;5091509;28;20039;-78
2022/07/13 06:19:25;;;;;;;10.05;4.20;;;;;;;22.28;59.86;101812.22;5078929;28;20067;-79
2022/07/13 06:21:50;;;;;;;9.85;4.40;;;;;;;22.35;60.26;101814.78;5079335;28;20302;-80
2022/07/13 06:24:16;;;;;;;9.00;4.50;;;;;;;22.40;59.02;101814.81;5079534;28;20043;-79
2022/07/13 06:26:41;;;;;;;7.82;4.50;;;;;;;22.47;58.74;101822.84;5079424;28;20119;-79
2022/07/13 06:29:06;;;;;;;6.97;4.47;;;;;;;22.56;58.49;101819.31;5078293;28;20118;-79
2022/07/13 06:31:32;;;;;;;7.75;4.45;;;;;;;22.64;59.37;101811.59;5076776;28;20155;-79
2022/07/13 06:33:58;;;;;;;6.65;4.00;;;;;;;22.75;58.22;101816.91;5079809;28;20036;-78
2022/07/13 06:36:23;;;;;;;6.85;4.20;;;;;;;22.81;59.27;101814.16;5079497;28;21012;-79
2022/07/13 06:38:49;;;;;;;6.78;4.47;;;;;;;22.87;58.27;101808.34;5079762;28;20040;-79
2022/07/13 06:41:15;;;;;;;8.32;4.35;;;;;;;22.89;57.81;101808.09;5078932;28;20032;-77
2022/07/13 06:43:40;;;;;;;6.72;4.50;;;;;;;22.97;58.22;101804.81;5079786;28;20584;-79
2022/07/13 06:46:06;;;;;;;10.55;5.07;;;;;;;23.01;58.76;101794.88;5079202;28;20626;-78
2022/07/13 06:48:31;;;;;;;7.60;4.78;;;;;;;23.11;57.64;101810.63;5079543;28;20714;-78
2022/07/13 06:50:56;;;;;;;8.73;5.07;;;;;;;23.14;57.99;101812.06;5079077;28;20163;-77
2022/07/13 06:53:22;;;;;;;8.85;5.03;;;;;;;23.14;57.79;101801.81;5078943;28;20048;-77
2022/07/13 06:55:47;;;;;;;8.45;4.50;;;;;;;23.18;58.83;101802.13;5079218;28;20036;-77
2022/07/13 06:58:13;;;;;;;8.10;4.70;;;;;;;23.22;58.25;101814.28;5057213;28;20457;-78
2022/07/13 07:00:38;;;;;;;9.27;5.03;;;;;;;23.23;58.60;101799.38;5076372;28;20040;-77
2022/07/13 07:03:04;;;;;;;9.30;4.90;;;;;;;23.29;57.99;101801.03;5077212;28;20042;-78
2022/07/13 07:05:29;;;;;;;7.28;4.80;;;;;;;23.31;57.29;101812.66;5077397;28;20284;-77
2022/07/13 07:07:54;;;;;;;9.10;5.10;;;;;;;23.41;58.22;101812.63;5078937;28;20064;-78
2022/07/13 07:10:20;;;;;;;8.85;5.15;;;;;;;23.61;58.28;101805.47;5079310;28;20047;-78
2022/07/13 07:12:45;;;;;;;8.23;4.95;;;;;;;23.78;57.69;101816.25;5079188;28;20039;-78
2022/07/13 07:15:10;;;;;;;10.30;5.20;;;;;;;23.86;58.29;101812.91;5077934;28;20040;-78
2022/07/13 07:17:46;;;;;;;10.20;4.88;;;;;;;23.88;57.86;101810.75;5079360;28;20032;-79
2022/07/13 07:20:12;;;;;;;8.30;4.82;;;;;;;23.77;56.74;101800.75;5077791;28;20164;-78
2022/07/13 07:22:37;;;;;;;9.65;4.80;;;;;;;23.85;58.36;101813.19;5078812;28;20043;-79
2022/07/13 07:25:03;;;;;;;7.72;4.78;;;;;;;23.91;56.82;101809.34;5077926;28;20040;-79
2022/07/13 07:27:28;;;;;;;6.55;5.07;;;;;;;23.86;56.91;101812.91;5080647;28;20115;-77
2022/07/13 07:29:54;;;;;;;9.52;5.13;;;;;;;23.85;56.69;101804.91;5089535;28;20055;-77
2022/07/13 07:32:19;;;;;;;10.25;5.15;;;;;;;23.84;57.69;101804.06;5091970;28;20027;-77
2022/07/13 07:34:44;;;;;;;9.27;5.15;;;;;;;23.90;57.39;101791.91;5092193;28;20024;-77
2022/07/13 07:37:10;;;;;;;11.30;5.43;;;;;;;23.94;57.20;101792.19;5095390;28;20034;-77
2022/07/13 07:39:36;;;;;;;9.98;4.85;;;;;;;23.94;57.36;101803.25;5092231;28;20036;-77
2022/07/13 07:42:03;;;;;;;10.65;5.13;;;;;;;23.98;58.22;101801.59;5093428;28;20036;-77
2022/07/13 07:44:29;;;;;;;9.50;4.95;;;;;;;24.03;57.86;101793.28;5092804;28;20032;-77
2022/07/13 07:46:55;;;;;;;9.32;5.00;;;;;;;24.18;58.92;101805.41;5088867;28;20136;-78
2022/07/13 07:49:20;;;;;;;9.07;5.13;;;;;;;24.39;58.71;101793.16;5093390;28;20186;-77
2022/07/13 07:51:45;;;;;;;8.63;4.70;;;;;;;24.48;57.95;101800.88;5095703;28;20344;-77
2022/07/13 07:54:11;;;;;;;8.52;5.10;;;;;;;24.58;56.88;101803.63;5094214;28;20472;-78
2022/07/13 07:56:36;;;;;;;6.82;4.68;;;;;;;24.57;57.29;101794.50;5093170;28;20540;-77
2022/07/13 07:59:01;;;;;;;7.85;4.65;;;;;;;24.58;57.10;101800.84;5093275;28;20042;-77
2022/07/13 08:01:28;;;;;;;7.72;5.00;;;;;;;24.58;57.84;101806.41;5093130;28;20020;-77
2022/07/13 08:03:54;;;;;;;9.73;4.93;;;;;;;24.60;57.94;101799.47;5093159;28;20032;-77
2022/07/13 08:06:20;;;;;;;8.13;4.88;;;;;;;24.72;57.85;101807.44;5092218;28;20445;-77
2022/07/13 08:08:46;;;;;;;9.70;5.32;;;;;;;24.78;57.89;101806.31;5090943;28;20107;-79
2022/07/13 08:11:16;;;;;;;11.77;5.50;;;;;;;24.74;57.57;101805.25;5090573;28;20035;-77
2022/07/13 08:13:42;;;;;;;9.52;4.90;;;;;;;24.74;57.42;101807.19;5092445;28;20028;-79
2022/07/13 08:16:07;;;;;;;12.23;4.88;;;;;;;24.76;57.28;101800.25;5093766;28;20031;-77
2022/07/13 08:18:33;;;;;;;9.68;4.78;;;;;;;24.68;57.82;101808.31;5092905;28;20024;-77
2022/07/13 08:20:58;;;;;;;9.60;5.18;;;;;;;24.70;58.17;101806.91;5093922;28;20114;-79
2022/07/13 08:26:07;;;;;;;9.93;5.53;;;;;;;24.62;57.96;101807.50;5086672;28;20047;-77
2022/07/13 08:28:33;;;;;;;9.82;5.38;;;;;;;24.62;58.78;101817.78;5094370;28;20028;-78
2022/07/13 08:30:58;;;;;;;8.85;5.20;;;;;;;24.65;59.83;101811.66;5093261;28;20035;-77
2022/07/13 08:38:34;;;;;;;10.98;5.05;;;;;;;24.80;59.92;101819.91;5092951;28;20047;-77
2022/07/13 08:39:05;;;;;;;7.55;5.07;;;;;;;24.87;57.83;101806.53;5091658;28;20038;-77
2022/07/13 08:41:32;;;;;;;8.10;5.22;;;;;;;24.84;57.04;101806.31;5091153;28;20028;-77
2022/07/13 08:43:58;;;;;;;10.65;5.05;;;;;;;24.81;57.47;101816.00;5089959;28;20115;-78
2022/07/13 08:46:25;;;;;;;10.20;4.55;;;;;;;24.82;57.89;101808.50;5084412;28;20028;-79
2022/07/13 08:48:54;;;;;;;9.25;4.68;;;;;;;24.74;57.82;101809.97;5077787;28;20035;-81
2022/07/13 08:51:21;;;;;;;7.38;4.65;;;;;;;24.73;58.57;101814.66;5076201;28;20043;-78
2022/07/13 08:53:55;;;;;;;7.28;4.30;;;;;;;24.77;57.83;101820.47;5073349;28;20171;-78
2022/07/13 08:56:21;;;;;;;7.85;4.60;;;;;;;24.76;57.63;101821.56;5074297;28;20040;-80
2022/07/13 08:58:47;;;;;;;6.57;4.55;;;;;;;24.73;58.13;101831.28;5074719;28;20482;-80
2022/07/13 09:01:14;;;;;;;8.25;4.40;;;;;;;24.78;57.52;101820.19;5074180;28;20065;-80
2022/07/13 09:03:40;;;;;;;8.48;4.40;;;;;;;24.80;58.04;101819.06;5073565;28;20063;-78
2022/07/13 09:06:05;;;;;;;8.80;4.25;;;;;;;24.88;56.87;101816.53;5072769;28;20479;-79
2022/07/13 09:08:39;;;;;;;10.00;4.18;;;;;;;24.97;56.76;101819.53;5074089;28;21260;-79
2022/07/13 09:11:05;;;;;;;5.53;4.15;;;;;;;25.05;55.47;101824.47;5073768;28;20476;-80
2022/07/13 09:13:44;;;;;;;7.30;3.90;;;;;;;25.07;55.81;101811.16;5072347;28;20119;-81
2022/07/13 09:16:22;;;;;;;4.82;4.10;;;;;;;25.20;56.86;101819.94;5073514;28;20120;-80
2022/07/13 09:18:50;;;;;;;7.25;4.28;;;;;;;25.21;55.05;101824.38;5073937;28;20042;-79
2022/07/13 09:21:16;;;;;;;5.20;4.35;;;;;;;25.36;57.21;101834.56;5088718;28;20036;-82
2022/07/13 09:23:42;;;;;;;5.72;4.40;;;;;;;25.38;54.77;101827.63;5074180;28;20149;-80
2022/07/13 09:26:08;;;;;;;7.63;4.57;;;;;;;25.42;55.37;101823.16;5073930;28;20098;-80
2022/07/13 09:28:43;;;;;;;7.22;4.45;;;;;;;25.52;56.41;101829.75;5076641;28;20036;-81
2022/07/13 09:31:09;;;;;;;7.55;4.65;;;;;;;25.57;55.54;101838.03;5076750;28;20044;-79
2022/07/13 09:33:36;;;;;;;10.18;4.50;;;;;;;25.60;55.49;101835.47;5076427;28;20479;-79
2022/07/13 09:36:24;;;;;;;8.90;4.35;;;;;;;25.73;56.12;101833.16;5076627;28;20043;-81
2022/07/13 09:38:54;;;;;;;6.68;4.40;;;;;;;25.65;53.89;101834.63;5075332;28;20048;-80
2022/07/13 09:41:24;;;;;;;8.00;4.15;;;;;;;25.70;53.42;101842.06;5076876;28;20031;-80
2022/07/13 09:47:05;;;;;;;8.07;4.43;;;;;;;25.70;54.11;101842.06;5076670;28;20403;-81
2022/07/13 09:49:35;;;;;;;6.82;4.38;;;;;;;25.68;54.64;101839.59;5077029;28;20701;-80
2022/07/13 09:52:03;;;;;;;9.77;4.50;;;;;;;25.67;52.71;101849.03;5076573;28;20028;-82
2022/07/13 09:54:31;;;;;;;6.07;4.35;;;;;;;25.74;53.93;101852.31;5076809;28;20035;-80
2022/07/13 09:57:03;;;;;;;7.82;3.70;;;;;;;25.78;53.93;101855.31;5076590;28;20032;-79
2022/07/13 09:59:29;;;;;;;5.70;4.18;;;;;;;25.67;52.84;101851.81;5076703;28;20633;-80
2022/07/13 10:01:55;;;;;;;8.02;3.90;;;;;;;25.65;53.92;101840.19;5076770;28;20044;-79
2022/07/13 10:04:21;;;;;;;6.05;3.80;;;;;;;25.67;51.02;101842.66;5076220;28;20044;-80
2022/07/13 10:06:47;;;;;;;7.20;3.72;;;;;;;25.75;51.67;101834.53;5074767;28;20684;-78
2022/07/13 10:09:12;;;;;;;8.70;3.95;;;;;;;26.00;51.81;101840.13;5076363;28;20111;-78
2022/07/13 10:11:38;;;;;;;7.43;4.00;;;;;;;26.21;50.79;101838.03;5076288;28;20070;-78
2022/07/13 10:14:07;;;;;;;8.10;4.25;;;;;;;26.29;49.81;101846.53;5075920;28;20127;-78
2022/07/13 10:16:33;;;;;;;5.85;3.50;;;;;;;26.21;50.24;101849.13;5076351;28;20044;-78
2022/07/13 10:19:06;;;;;;;5.15;3.47;;;;;;;26.55;52.93;101843.47;5074410;28;20385;-79
2022/07/13 10:21:57;;;;;;;7.80;3.97;;;;;;;26.74;50.12;101851.06;5076837;28;20032;-79
2022/07/13 10:24:23;;;;;;;8.82;4.45;;;;;;;26.85;49.66;101846.19;5075809;28;20047;-80
2022/07/13 10:26:49;;;;;;;10.32;4.00;;;;;;;27.06;50.86;101843.94;5076149;28;20643;-79
2022/07/13 10:29:15;;;;;;;4.38;3.47;;;;;;;27.13;49.08;101855.50;5075548;28;20032;-79
2022/07/13 10:31:41;;;;;;;5.30;3.63;;;;;;;27.04;48.31;101851.78;5076129;28;20561;-81
2022/07/13 10:34:09;;;;;;;9.00;3.55;;;;;;;27.22;49.08;101856.50;5075741;28;20155;-78
2022/07/13 10:36:50;;;;;;;6.60;3.90;;;;;;;27.27;49.49;101855.59;5078272;28;20033;-78
2022/07/13 10:39:16;;;;;;;7.13;3.72;;;;;;;27.00;48.11;101845.97;5077849;28;20031;-77
2022/07/13 10:42:07;;;;;;;5.95;3.40;;;;;;;27.46;48.19;101859.22;5081042;28;20035;-78
2022/07/13 10:44:36;;;;;;;6.55;3.20;;;;;;;27.62;48.18;101857.03;5073199;28;20361;-77
2022/07/13 10:47:03;;;;;;;5.50;3.13;;;;;;;27.62;45.82;101848.69;5076088;28;20341;-77
2022/07/13 10:49:31;;;;;;;5.38;3.08;;;;;;;27.75;48.80;101854.59;5077706;28;20042;-77
2022/07/13 10:52:25;;;;;;;3.97;3.20;;;;;;;27.75;47.73;101866.53;5082805;28;20442;-79
2022/07/13 10:55:11;;;;;;;4.35;3.13;;;;;;;27.77;47.93;101863.44;5085406;28;20368;-78
2022/07/13 10:57:38;;;;;;;7.15;3.00;;;;;;;27.59;44.44;101852.06;5078549;28;20035;-77
2022/07/13 11:00:24;;;;;;;6.55;2.95;;;;;;;27.67;46.18;101864.47;5083171;28;20485;-78
2022/07/13 11:02:50;;;;;;;10.63;3.10;;;;;;;27.62;44.77;101861.75;5088079;28;20549;-77
2022/07/13 11:05:18;;;;;;;6.00;2.97;;;;;;;27.80;47.18;101862.88;5083756;28;20031;-79
2022/07/13 11:07:50;;;;;;;11.60;2.90;;;;;;;28.07;46.56;101867.72;5078593;28;20045;-83
2022/07/13 11:10:25;;;;;;;4.93;2.70;;;;;;;28.28;46.75;101861.75;5064977;28;20115;-77
2022/07/13 11:13:08;;;;;;;4.80;2.67;;;;;;;28.24;44.69;101866.28;5070606;28;20024;-78
2022/07/13 11:15:49;;;;;;;4.40;2.90;;;;;;;28.18;44.71;101876.72;5067540;28;20074;-78
2022/07/13 11:18:21;;;;;;;6.50;2.80;;;;;;;28.00;43.21;101881.19;5072435;28;20032;-78
2022/07/13 11:21:04;;;;;;;4.03;2.47;;;;;;;27.78;42.62;101865.97;5071483;28;20054;-77
2022/07/13 11:26:51;;;;;;;2.85;2.25;;;;;;;27.71;40.77;101885.00;5070658;28;20039;-77
2022/07/13 11:29:45;;;;;;;4.43;2.60;;;;;;;27.80;41.58;101883.16;5070682;28;20031;-77
2022/07/13 11:32:10;;;;;;;5.75;2.72;;;;;;;27.46;43.17;101869.53;5068530;28;20344;-76
2022/07/13 11:34:36;;;;;;;3.55;2.30;;;;;;;27.33;42.01;101870.25;5070118;28;20129;-79